Oski — WYD3004 — position and weather

sailwx.info

Track history (hours):
 
Tides and Currents Weather Stations Pressure Air Temp Water Temp Dewpoint Dewpoint Depression Visibility Wind Speed Wind Dir Waves Ship Positions

Oski

Owner: BLUE & GOLD FLEET, SAN FRANCISCO, CA. More information available from US FCC via Universal Licensing System and Coast Guard Vessel Documentation Center.

Last reported at 2017-Dec-16 01:09 UTC. Time now 2017-Dec-16 13:05 UTC.
Position N 37°49' W 122°25'.

Length 24 m; draft 2 m.

Type: Passenger vessel. MMSI: 366985320.

Date/timePositionNaut miles runAvg speedWind from/ knotsBaromVisibWave heightAir tempDewpointWater temp
2017-Dec-16 01:09N 37°49' W 122°25'0 3.4
2017-Dec-16 01:01N 37°49' W 122°24'1 2.8
2017-Dec-16 00:30N 37°49' W 122°25'2 3.7
2017-Dec-16 00:00N 37°49' W 122°28'2 4.9
2017-Dec-15 23:30N 37°49' W 122°25'1 1.9
2017-Dec-15 23:00N 37°49' W 122°26'2 3.5
2017-Dec-15 22:30N 37°49' W 122°28'3 4.9
2017-Dec-15 22:00N 37°49' W 122°25'0 0.0
2017-Dec-15 21:30N 37°49' W 122°25'1 2.0
2017-Dec-15 21:00N 37°49' W 122°25'2 4.8
2017-Dec-15 20:30N 37°49' W 122°28'3 5.2
2017-Dec-15 20:00N 37°49' W 122°25'2 4.3
2017-Dec-15 19:30N 37°49' W 122°27'2 4.3
2017-Dec-15 19:00N 37°49' W 122°25'0 0.0
2017-Dec-15 18:30N 37°49' W 122°25'0 0.0
2017-Dec-13 21:01N 37°49' W 122°25'0 0.0
2017-Dec-13 21:00N 37°49' W 122°25'1 2.8
2017-Dec-13 20:30N 37°50' W 122°26'1 3.0
2017-Dec-13 20:00N 37°49' W 122°28'2 4.5
2017-Dec-13 19:27N 37°49' W 122°25'0 0.0
2017-Dec-13 18:58N 37°49' W 122°25'  
2017-Dec-11 01:12N 37°49' W 122°25'0 2.5
2017-Dec-11 01:01N 37°49' W 122°24'1 2.4
2017-Dec-11 00:30N 37°49' W 122°25'1 2.8
2017-Dec-11 00:00N 37°49' W 122°27'2 3.5
2017-Dec-10 23:30N 37°49' W 122°25'1 1.2
2017-Dec-10 23:00N 37°49' W 122°24'2 3.8
2017-Dec-10 22:30N 37°49' W 122°27'2 3.4
2017-Dec-10 22:00N 37°49' W 122°25'0 0.0
2017-Dec-10 21:29N 37°49' W 122°25'1 1.3
2017-Dec-10 21:00N 37°49' W 122°24'2 4.3
2017-Dec-10 20:30N 37°49' W 122°27'2 3.4
2017-Dec-10 19:56N 37°49' W 122°25'2 5.3
2017-Dec-10 19:31N 37°49' W 122°27'2 3.6
2017-Dec-10 18:53N 37°49' W 122°25'0 0.0
2017-Dec-10 01:16N 37°49' W 122°25'1 2.1
2017-Dec-10 01:00N 37°49' W 122°24'2 3.1
2017-Dec-10 00:30N 37°50' W 122°25'1 2.7
2017-Dec-10 00:00N 37°49' W 122°27'2 2.9
2017-Dec-09 23:29N 37°49' W 122°25'0 0.0
2017-Dec-09 01:08N 37°49' W 122°25'0 3.6
2017-Dec-09 01:00N 37°49' W 122°24'1 3.0
2017-Dec-09 00:30N 37°50' W 122°25'2 3.6
2017-Dec-09 00:00N 37°49' W 122°27'2 3.1
2017-Dec-08 23:20N 37°49' W 122°25'1 2.7
2017-Dec-08 23:00N 37°49' W 122°25'1 2.9
2017-Dec-08 22:30N 37°49' W 122°27'2 3.1
2017-Dec-08 21:58N 37°49' W 122°25'0 0.0
2017-Dec-08 21:28N 37°49' W 122°25'1 1.8
2017-Dec-08 21:01N 37°49' W 122°25'1 2.9
2017-Dec-08 20:31N 37°49' W 122°27'2 2.7
2017-Dec-08 19:54N 37°49' W 122°25'3 6.7
2017-Dec-08 19:30N 37°49' W 122°28'3 5.3
2017-Dec-08 19:00N 37°49' W 122°25'  
Track history (hours):
 
Tides and Currents Weather Stations Pressure Air Temp Water Temp Dewpoint Dewpoint Depression Visibility Wind Speed Wind Dir Waves Ship Positions

Oski

Owner: BLUE & GOLD FLEET, SAN FRANCISCO, CA. More information available from US FCC via Universal Licensing System and Coast Guard Vessel Documentation Center.

Last reported at 2017-Dec-16 01:09 UTC. Time now 2017-Dec-16 13:05 UTC.
Position N 37°49' W 122°25'.

Length 24 m; draft 2 m.

Type: Passenger vessel. MMSI: 366985320.

Date/timePositionNaut miles runAvg speedWind from/ knotsBaromVisibWave heightAir tempDewpointWater temp
2017-Dec-16 01:09N 37°49' W 122°25'0 3.4
2017-Dec-16 01:01N 37°49' W 122°24'1 2.8
2017-Dec-16 00:30N 37°49' W 122°25'2 3.7
2017-Dec-16 00:00N 37°49' W 122°28'2 4.9
2017-Dec-15 23:30N 37°49' W 122°25'1 1.9
2017-Dec-15 23:00N 37°49' W 122°26'2 3.5
2017-Dec-15 22:30N 37°49' W 122°28'3 4.9
2017-Dec-15 22:00N 37°49' W 122°25'0 0.0
2017-Dec-15 21:30N 37°49' W 122°25'1 2.0
2017-Dec-15 21:00N 37°49' W 122°25'2 4.8
2017-Dec-15 20:30N 37°49' W 122°28'3 5.2
2017-Dec-15 20:00N 37°49' W 122°25'2 4.3
2017-Dec-15 19:30N 37°49' W 122°27'2 4.3
2017-Dec-15 19:00N 37°49' W 122°25'0 0.0
2017-Dec-15 18:30N 37°49' W 122°25'0 0.0
2017-Dec-13 21:01N 37°49' W 122°25'0 0.0
2017-Dec-13 21:00N 37°49' W 122°25'1 2.8
2017-Dec-13 20:30N 37°50' W 122°26'1 3.0
2017-Dec-13 20:00N 37°49' W 122°28'2 4.5
2017-Dec-13 19:27N 37°49' W 122°25'0 0.0
2017-Dec-13 18:58N 37°49' W 122°25'  
2017-Dec-11 01:12N 37°49' W 122°25'0 2.5
2017-Dec-11 01:01N 37°49' W 122°24'1 2.4
2017-Dec-11 00:30N 37°49' W 122°25'1 2.8
2017-Dec-11 00:00N 37°49' W 122°27'2 3.5
2017-Dec-10 23:30N 37°49' W 122°25'1 1.2
2017-Dec-10 23:00N 37°49' W 122°24'2 3.8
2017-Dec-10 22:30N 37°49' W 122°27'2 3.4
2017-Dec-10 22:00N 37°49' W 122°25'0 0.0
2017-Dec-10 21:29N 37°49' W 122°25'1 1.3
2017-Dec-10 21:00N 37°49' W 122°24'2 4.3
2017-Dec-10 20:30N 37°49' W 122°27'2 3.4
2017-Dec-10 19:56N 37°49' W 122°25'2 5.3
2017-Dec-10 19:31N 37°49' W 122°27'2 3.6
2017-Dec-10 18:53N 37°49' W 122°25'0 0.0
2017-Dec-10 01:16N 37°49' W 122°25'1 2.1
2017-Dec-10 01:00N 37°49' W 122°24'2 3.1
2017-Dec-10 00:30N 37°50' W 122°25'1 2.7
2017-Dec-10 00:00N 37°49' W 122°27'2 2.9
2017-Dec-09 23:29N 37°49' W 122°25'0 0.0
2017-Dec-09 01:08N 37°49' W 122°25'0 3.6
2017-Dec-09 01:00N 37°49' W 122°24'1 3.0
2017-Dec-09 00:30N 37°50' W 122°25'2 3.6
2017-Dec-09 00:00N 37°49' W 122°27'2 3.1
2017-Dec-08 23:20N 37°49' W 122°25'1 2.7
2017-Dec-08 23:00N 37°49' W 122°25'1 2.9
2017-Dec-08 22:30N 37°49' W 122°27'2 3.1
2017-Dec-08 21:58N 37°49' W 122°25'0 0.0
2017-Dec-08 21:28N 37°49' W 122°25'1 1.8
2017-Dec-08 21:01N 37°49' W 122°25'1 2.9
2017-Dec-08 20:31N 37°49' W 122°27'2 2.7
2017-Dec-08 19:54N 37°49' W 122°25'3 6.7
2017-Dec-08 19:30N 37°49' W 122°28'3 5.3
2017-Dec-08 19:00N 37°49' W 122°25'  

Dump ship's entire track history